createdAt,value
2023-01-09T00:01:34.726Z,7.80
2023-01-09T00:04:02.217Z,7.80
2023-01-09T00:06:29.067Z,7.80
2023-01-09T00:08:57.585Z,7.70
2023-01-09T00:11:24.504Z,7.70
2023-01-09T00:13:51.341Z,7.70
2023-01-09T00:16:18.477Z,7.70
2023-01-09T00:18:45.610Z,7.70
2023-01-09T00:21:13.677Z,7.60
2023-01-09T00:23:40.553Z,7.70
2023-01-09T00:26:33.333Z,7.60
2023-01-09T00:29:00.144Z,7.60
2023-01-09T00:31:28.958Z,7.60
2023-01-09T00:34:02.473Z,7.60
2023-01-09T00:36:29.970Z,7.60
2023-01-09T00:38:56.764Z,7.50
2023-01-09T00:41:35.048Z,7.50
2023-01-09T00:44:33.724Z,7.40
2023-01-09T00:47:14.318Z,7.50
2023-01-09T00:49:43.849Z,7.50
2023-01-09T00:52:12.951Z,7.50
2023-01-09T00:54:42.841Z,7.50
2023-01-09T00:57:13.463Z,7.50
2023-01-09T00:59:44.033Z,7.40
2023-01-09T01:02:11.179Z,7.40
2023-01-09T01:05:10.301Z,7.40
2023-01-09T01:07:42.805Z,7.40
2023-01-09T01:10:24.216Z,7.40
2023-01-09T01:12:51.752Z,7.40
2023-01-09T01:15:23.902Z,7.40
2023-01-09T01:17:50.615Z,7.40
2023-01-09T01:20:19.042Z,7.40
2023-01-09T01:22:46.183Z,7.30
2023-01-09T01:25:19.582Z,7.20
2023-01-09T01:27:46.603Z,7.30
2023-01-09T01:30:16.638Z,7.20
2023-01-09T01:32:43.924Z,7.20
2023-01-09T01:35:12.627Z,7.20
2023-01-09T01:37:40.263Z,7.20
2023-01-09T01:40:09.914Z,7.10
2023-01-09T01:42:36.714Z,7.20
2023-01-09T01:45:13.715Z,7.10
2023-01-09T01:47:56.854Z,7.10
2023-01-09T01:50:49.216Z,7.10
2023-01-09T01:53:46.272Z,7.10
2023-01-09T01:56:46.616Z,7.10
2023-01-09T01:59:37.319Z,7.10
2023-01-09T02:02:05.752Z,7.00
2023-01-09T02:04:39.933Z,7.00
2023-01-09T02:07:10.185Z,6.90
2023-01-09T02:09:41.722Z,6.90
2023-01-09T02:12:25.874Z,7.00
2023-01-09T02:15:05.237Z,7.00
2023-01-09T02:18:16.822Z,7.10
2023-01-09T02:21:14.826Z,7.10
2023-01-09T02:24:14.855Z,7.10
2023-01-09T02:27:34.246Z,7.10
2023-01-09T02:30:36.158Z,7.20
2023-01-09T02:33:19.506Z,7.10
2023-01-09T02:36:11.776Z,7.10
2023-01-09T02:39:05.251Z,7.10
2023-01-09T02:41:53.296Z,7.10
2023-01-09T02:44:29.828Z,7.10
2023-01-09T02:47:20.656Z,7.00
2023-01-09T02:49:56.181Z,7.00
2023-01-09T02:52:41.222Z,6.90
2023-01-09T02:55:29.470Z,7.00
2023-01-09T02:58:40.115Z,6.90
2023-01-09T03:01:25.084Z,6.90
2023-01-09T03:04:22.813Z,6.90
2023-01-09T03:07:08.584Z,6.90
2023-01-09T03:09:40.891Z,6.90
2023-01-09T03:12:22.432Z,6.80
2023-01-09T03:14:56.448Z,6.80
2023-01-09T03:17:31.441Z,6.80
2023-01-09T03:20:04.536Z,6.80
2023-01-09T03:22:31.297Z,6.70
2023-01-09T03:24:58.228Z,6.70
2023-01-09T03:27:27.496Z,6.60
2023-01-09T03:29:56.922Z,6.70
2023-01-09T03:32:23.755Z,6.70
2023-01-09T03:34:50.601Z,6.60
2023-01-09T03:37:17.445Z,6.50
2023-01-09T03:39:44.243Z,6.50
2023-01-09T03:42:10.926Z,6.50
2023-01-09T03:44:37.699Z,6.50
2023-01-09T03:47:07.330Z,6.50
2023-01-09T03:49:34.171Z,6.50
2023-01-09T03:52:00.947Z,6.50
2023-01-09T03:54:27.713Z,6.30
2023-01-09T03:56:54.545Z,6.40
2023-01-09T03:59:21.381Z,6.40
2023-01-09T04:01:48.227Z,6.50
2023-01-09T04:04:15.100Z,6.40
2023-01-09T04:06:41.850Z,6.40
2023-01-09T04:09:08.605Z,6.40
2023-01-09T04:11:35.308Z,6.40
2023-01-09T04:14:02.087Z,6.30
2023-01-09T04:16:28.908Z,6.40
2023-01-09T04:18:55.704Z,6.50
2023-01-09T04:21:22.542Z,6.40
2023-01-09T04:23:49.252Z,6.30
2023-01-09T04:26:15.949Z,6.30
2023-01-09T04:28:42.750Z,6.30
2023-01-09T04:31:09.793Z,6.30
2023-01-09T04:33:36.554Z,6.30
2023-01-09T04:36:04.322Z,6.40
2023-01-09T04:38:31.185Z,6.30
2023-01-09T04:40:57.999Z,6.30
2023-01-09T04:43:26.789Z,6.30
2023-01-09T04:45:53.679Z,6.30
2023-01-09T04:48:20.504Z,6.30
2023-01-09T04:50:47.270Z,6.40
2023-01-09T04:53:14.004Z,6.40
2023-01-09T04:55:41.409Z,6.40
2023-01-09T04:58:08.558Z,6.40
2023-01-09T05:00:35.312Z,6.40
2023-01-09T05:03:03.105Z,6.40
2023-01-09T05:05:30.164Z,6.40
2023-01-09T05:07:56.946Z,6.40
2023-01-09T05:10:23.718Z,6.40
2023-01-09T05:12:52.446Z,6.40
2023-01-09T05:15:19.341Z,6.50
2023-01-09T05:17:46.180Z,6.50
2023-01-09T05:20:13.115Z,6.50
2023-01-09T05:22:39.852Z,6.50
2023-01-09T05:25:07.231Z,6.60
2023-01-09T05:27:34.084Z,6.60
2023-01-09T05:30:00.849Z,6.60
2023-01-09T05:32:27.803Z,6.60
2023-01-09T05:34:54.600Z,6.60
2023-01-09T05:37:21.419Z,6.60
2023-01-09T05:39:48.233Z,6.70
2023-01-09T05:42:14.929Z,6.60
2023-01-09T05:44:41.671Z,6.70
2023-01-09T05:47:08.384Z,6.60
2023-01-09T05:49:35.109Z,6.60
2023-01-09T05:52:01.947Z,6.60
2023-01-09T05:54:28.685Z,6.70
2023-01-09T05:56:55.704Z,6.70
2023-01-09T05:59:22.576Z,6.70
2023-01-09T06:01:49.429Z,6.80
2023-01-09T06:04:16.422Z,6.80
2023-01-09T06:06:43.226Z,6.80
2023-01-09T06:09:10.116Z,6.80
2023-01-09T06:11:38.698Z,6.90
2023-01-09T06:14:06.705Z,6.90
2023-01-09T06:16:33.626Z,6.80
2023-01-09T06:19:01.560Z,6.90
2023-01-09T06:21:29.444Z,6.80
2023-01-09T06:23:59.427Z,6.80
2023-01-09T06:26:27.860Z,6.80
2023-01-09T06:28:56.487Z,6.80
2023-01-09T06:31:25.130Z,6.80
2023-01-09T06:33:52.476Z,6.80
2023-01-09T06:36:22.234Z,6.90
2023-01-09T06:38:49.388Z,6.90
2023-01-09T06:41:16.144Z,6.80
2023-01-09T06:43:44.770Z,6.90
2023-01-09T06:46:11.631Z,6.80
2023-01-09T06:48:39.522Z,6.90
2023-01-09T06:51:06.297Z,6.90
2023-01-09T06:53:33.211Z,6.90
2023-01-09T06:56:00.042Z,6.90
2023-01-09T06:58:26.738Z,6.90
2023-01-09T07:00:55.473Z,6.90
2023-01-09T07:03:22.601Z,6.90
2023-01-09T07:05:53.534Z,6.90
2023-01-09T07:08:20.283Z,6.90
2023-01-09T07:10:47.085Z,7.00
2023-01-09T07:13:13.901Z,7.00
2023-01-09T07:15:40.716Z,6.90
2023-01-09T07:18:07.593Z,7.00
2023-01-09T07:20:34.394Z,6.90
2023-01-09T07:23:01.529Z,7.00
2023-01-09T07:25:28.330Z,6.90
2023-01-09T07:27:55.050Z,6.90
2023-01-09T07:30:21.854Z,6.90
2023-01-09T07:32:48.611Z,6.90
2023-01-09T07:35:15.487Z,7.00
2023-01-09T07:37:42.294Z,7.00
2023-01-09T07:40:10.735Z,6.90
2023-01-09T07:42:37.605Z,7.00
2023-01-09T07:45:05.919Z,7.00
2023-01-09T07:47:32.627Z,7.00
2023-01-09T07:49:59.400Z,7.10
2023-01-09T07:52:27.913Z,7.10
2023-01-09T07:54:54.628Z,7.10
2023-01-09T07:57:21.390Z,7.10
2023-01-09T07:59:49.298Z,7.20
2023-01-09T08:02:18.224Z,7.10
2023-01-09T08:04:45.052Z,7.10
2023-01-09T08:07:11.791Z,7.20
2023-01-09T08:09:38.845Z,7.10
2023-01-09T08:12:06.823Z,7.10
2023-01-09T08:14:33.624Z,7.10
2023-01-09T08:17:02.773Z,7.10
2023-01-09T08:19:34.620Z,7.10
2023-01-09T08:22:01.505Z,7.10
2023-01-09T08:24:30.409Z,7.20
2023-01-09T08:26:57.214Z,7.20
2023-01-09T08:29:24.046Z,7.20
2023-01-09T08:31:50.885Z,7.20
2023-01-09T08:34:22.643Z,7.20
2023-01-09T08:36:49.617Z,7.20
2023-01-09T08:39:16.433Z,7.20
2023-01-09T08:42:01.744Z,7.20
2023-01-09T08:44:47.113Z,7.20
2023-01-09T08:47:18.698Z,7.20
2023-01-09T08:49:46.485Z,7.20
2023-01-09T08:52:13.762Z,7.20
2023-01-09T08:54:41.733Z,7.20
2023-01-09T08:57:09.035Z,7.20
2023-01-09T08:59:36.819Z,7.20
2023-01-09T09:02:03.702Z,7.20
2023-01-09T09:04:30.531Z,7.20
2023-01-09T09:06:57.546Z,7.20
2023-01-09T09:09:25.717Z,7.20
2023-01-09T09:11:55.618Z,7.30
2023-01-09T09:14:40.899Z,7.30
2023-01-09T09:17:08.725Z,7.30
2023-01-09T09:19:35.523Z,7.30
2023-01-09T09:22:02.243Z,7.30
2023-01-09T09:24:28.967Z,7.30
2023-01-09T09:26:55.734Z,7.30
2023-01-09T09:29:22.449Z,7.30
2023-01-09T09:32:00.816Z,7.30
2023-01-09T09:34:27.815Z,7.40
2023-01-09T09:36:56.717Z,7.40
2023-01-09T09:39:23.533Z,7.40
2023-01-09T09:42:38.201Z,7.40
2023-01-09T09:46:19.931Z,7.40
2023-01-09T09:49:01.544Z,7.40
2023-01-09T09:51:47.179Z,7.40
2023-01-09T09:54:39.713Z,7.50
2023-01-09T09:57:14.629Z,7.60
2023-01-09T09:59:43.464Z,7.70
2023-01-09T10:02:20.000Z,7.70
2023-01-09T10:04:56.912Z,7.80
2023-01-09T10:07:42.475Z,7.80
2023-01-09T10:10:29.400Z,7.90
2023-01-09T10:13:20.792Z,7.90
2023-01-09T10:16:16.053Z,8.00
2023-01-09T10:19:16.277Z,8.00
2023-01-09T10:22:02.474Z,8.10
2023-01-09T10:24:54.454Z,8.00
2023-01-09T10:27:31.942Z,8.00
2023-01-09T10:30:55.313Z,7.90
2023-01-09T10:33:33.804Z,7.90
2023-01-09T10:36:24.388Z,7.90
2023-01-09T10:38:57.772Z,8.00
2023-01-09T10:41:58.168Z,8.00
2023-01-09T10:44:37.563Z,7.90
2023-01-09T10:47:32.628Z,7.90
2023-01-09T10:50:03.113Z,8.00
2023-01-09T10:52:42.501Z,8.00
2023-01-09T10:55:32.097Z,8.00
2023-01-09T10:58:16.015Z,8.00
2023-01-09T11:00:43.901Z,8.10
2023-01-09T11:03:19.507Z,8.10
2023-01-09T11:05:58.965Z,8.20
2023-01-09T11:08:42.911Z,8.10
2023-01-09T11:11:10.859Z,8.20
2023-01-09T11:13:43.522Z,8.30
2023-01-09T11:16:23.954Z,8.50
2023-01-09T11:19:01.016Z,8.50
2023-01-09T11:21:40.672Z,8.50
2023-01-09T11:24:29.290Z,8.60
2023-01-09T11:27:14.502Z,8.60
2023-01-09T11:29:42.063Z,8.40
2023-01-09T11:32:23.294Z,8.40
2023-01-09T11:34:50.328Z,8.40
2023-01-09T11:37:30.334Z,8.40
2023-01-09T11:40:00.620Z,8.40
2023-01-09T11:42:48.837Z,8.40
2023-01-09T11:45:30.905Z,8.50
2023-01-09T11:48:17.245Z,8.40
2023-01-09T11:50:55.903Z,8.40
2023-01-09T11:53:25.147Z,8.40
2023-01-09T11:56:02.462Z,8.40
2023-01-09T11:58:35.152Z,8.30
2023-01-09T12:01:35.766Z,8.20
2023-01-09T12:04:52.384Z,8.30
2023-01-09T12:07:44.159Z,8.30
2023-01-09T12:10:35.037Z,8.20
2023-01-09T12:13:29.906Z,8.20
2023-01-09T12:16:40.119Z,8.30
2023-01-09T12:19:44.534Z,8.30
2023-01-09T12:22:59.886Z,8.30
2023-01-09T12:26:20.913Z,8.40
2023-01-09T12:28:50.263Z,8.50
2023-01-09T12:32:20.499Z,8.50
2023-01-09T12:35:28.510Z,8.50
2023-01-09T12:38:09.753Z,8.50
2023-01-09T12:41:16.840Z,8.60
2023-01-09T12:44:34.384Z,8.60
2023-01-09T12:47:05.134Z,8.60
2023-01-09T12:49:55.316Z,8.60
2023-01-09T12:52:34.838Z,8.60
2023-01-09T12:55:23.939Z,8.60
2023-01-09T12:57:59.416Z,8.60
2023-01-09T13:00:37.440Z,8.60
2023-01-09T13:03:32.247Z,8.60
2023-01-09T13:06:08.664Z,8.60
2023-01-09T13:08:45.459Z,8.60
2023-01-09T13:11:20.531Z,8.50
2023-01-09T13:14:20.213Z,8.60
2023-01-09T13:16:56.150Z,8.50
2023-01-09T13:19:37.568Z,8.70
2023-01-09T13:22:06.503Z,8.70
2023-01-09T13:24:57.445Z,8.80
2023-01-09T13:27:27.155Z,8.80
2023-01-09T13:30:11.591Z,8.70
2023-01-09T13:32:39.320Z,8.70
2023-01-09T13:35:13.466Z,8.70
2023-01-09T13:37:42.629Z,8.60
2023-01-09T13:40:21.521Z,8.60
2023-01-09T13:43:03.380Z,8.60
2023-01-09T13:45:34.541Z,8.60
2023-01-09T13:48:13.040Z,8.50
2023-01-09T13:50:43.401Z,8.50
2023-01-09T13:53:31.786Z,8.40
2023-01-09T13:55:59.536Z,8.50
2023-01-09T13:58:55.532Z,8.40
2023-01-09T14:01:26.988Z,8.40
2023-01-09T14:04:14.683Z,8.40
2023-01-09T14:06:44.038Z,8.30
2023-01-09T14:09:30.369Z,8.40
2023-01-09T14:12:06.076Z,8.40
2023-01-09T14:14:35.188Z,8.40
2023-01-09T14:17:03.481Z,8.40
2023-01-09T14:19:40.822Z,8.40
2023-01-09T14:22:24.454Z,8.50
2023-01-09T14:24:53.251Z,8.40
2023-01-09T14:27:54.044Z,8.40
2023-01-09T14:30:26.858Z,8.40
2023-01-09T14:33:18.667Z,8.30
2023-01-09T14:36:01.092Z,8.30
2023-01-09T14:38:49.631Z,8.30
2023-01-09T14:42:07.874Z,8.30
2023-01-09T14:45:01.085Z,8.30
2023-01-09T14:47:48.118Z,8.30
2023-01-09T14:50:39.129Z,8.20
2023-01-09T14:53:30.570Z,8.20
2023-01-09T14:56:01.731Z,8.20
2023-01-09T14:58:36.899Z,8.20
2023-01-09T15:01:25.436Z,8.20
2023-01-09T15:03:59.533Z,8.20
2023-01-09T15:06:41.453Z,8.20
2023-01-09T15:09:47.742Z,8.20
2023-01-09T15:12:23.781Z,8.20
2023-01-09T15:15:00.673Z,8.20
2023-01-09T15:17:35.626Z,8.20
2023-01-09T15:20:06.373Z,8.10
2023-01-09T15:22:37.004Z,8.10
2023-01-09T15:25:38.250Z,8.10
2023-01-09T15:28:31.998Z,8.10
2023-01-09T15:31:10.956Z,8.00
2023-01-09T15:33:40.757Z,8.00
2023-01-09T15:36:22.300Z,8.00
2023-01-09T15:38:51.550Z,8.10
2023-01-09T15:41:45.291Z,8.00
2023-01-09T15:44:26.389Z,8.10
2023-01-09T15:46:58.545Z,8.10
2023-01-09T15:49:27.105Z,8.10
2023-01-09T15:51:54.896Z,8.10
2023-01-09T15:54:30.510Z,8.10
2023-01-09T15:57:25.366Z,8.10
2023-01-09T16:00:17.983Z,8.10
2023-01-09T16:03:08.442Z,8.10
2023-01-09T16:05:44.992Z,8.10
2023-01-09T16:08:26.327Z,8.10
2023-01-09T16:10:58.158Z,8.10
2023-01-09T16:13:28.933Z,8.10
2023-01-09T16:16:01.557Z,8.10
2023-01-09T16:18:37.408Z,8.10
2023-01-09T16:21:38.601Z,8.10
2023-01-09T16:24:14.516Z,8.10
2023-01-09T16:26:41.313Z,8.10
2023-01-09T16:29:34.874Z,8.10
2023-01-09T16:32:18.674Z,8.20
2023-01-09T16:34:50.799Z,8.10
2023-01-09T16:37:17.868Z,8.10
2023-01-09T16:40:22.455Z,8.10
2023-01-09T16:43:01.571Z,8.10
2023-01-09T16:45:32.652Z,8.10
2023-01-09T16:48:01.116Z,8.10
2023-01-09T16:50:28.263Z,8.10
2023-01-09T16:52:59.350Z,8.10
2023-01-09T16:55:26.256Z,8.20
2023-01-09T16:57:53.453Z,8.20
2023-01-09T17:00:21.597Z,8.10
2023-01-09T17:02:48.469Z,8.00
2023-01-09T17:05:15.312Z,7.90
2023-01-09T17:07:42.041Z,7.80
2023-01-09T17:10:22.012Z,7.80
2023-01-09T17:12:50.041Z,7.80
2023-01-09T17:15:17.145Z,7.70
2023-01-09T17:17:43.889Z,7.70
2023-01-09T17:20:18.335Z,7.60
2023-01-09T17:22:45.147Z,7.60
2023-01-09T17:25:54.664Z,7.60
2023-01-09T17:28:33.841Z,7.60
2023-01-09T17:31:09.052Z,7.60
2023-01-09T17:33:37.576Z,7.50
2023-01-09T17:36:18.194Z,7.50
2023-01-09T17:38:44.942Z,7.50
2023-01-09T17:41:14.870Z,7.50
2023-01-09T17:43:44.542Z,7.40
2023-01-09T17:46:24.242Z,7.40
2023-01-09T17:48:53.575Z,7.40
2023-01-09T17:51:23.881Z,7.40
2023-01-09T17:53:50.835Z,7.40
2023-01-09T17:56:22.107Z,7.40
2023-01-09T17:58:49.341Z,7.30
2023-01-09T18:01:19.069Z,7.30
2023-01-09T18:03:48.849Z,7.30
2023-01-09T18:06:20.081Z,7.30
2023-01-09T18:08:47.033Z,7.30
2023-01-09T18:11:22.080Z,7.30
2023-01-09T18:13:56.467Z,7.20
2023-01-09T18:16:27.628Z,7.20
2023-01-09T18:18:57.746Z,7.20
2023-01-09T18:21:29.862Z,7.30
2023-01-09T18:23:57.896Z,7.30
2023-01-09T18:26:24.735Z,7.30
2023-01-09T18:28:57.076Z,7.30
2023-01-09T18:31:26.017Z,7.30
2023-01-09T18:33:56.362Z,7.40
2023-01-09T18:36:29.705Z,7.40
2023-01-09T18:39:02.714Z,7.30
2023-01-09T18:41:30.794Z,7.40
2023-01-09T18:44:01.317Z,7.40
2023-01-09T18:46:32.308Z,7.40
2023-01-09T18:49:03.806Z,7.40
2023-01-09T18:51:33.597Z,7.40
2023-01-09T18:54:00.490Z,7.40
2023-01-09T18:56:27.628Z,7.40
2023-01-09T18:58:59.607Z,7.40
2023-01-09T19:01:30.533Z,7.50
2023-01-09T19:03:59.574Z,7.50
2023-01-09T19:06:28.920Z,7.50
2023-01-09T19:08:56.482Z,7.50
2023-01-09T19:11:23.312Z,7.50
2023-01-09T19:13:53.352Z,7.50
2023-01-09T19:16:20.441Z,7.40
2023-01-09T19:18:47.360Z,7.40
2023-01-09T19:21:20.388Z,7.40
2023-01-09T19:23:49.167Z,7.30
2023-01-09T19:26:23.954Z,7.40
2023-01-09T19:28:54.929Z,7.30
2023-01-09T19:31:24.315Z,7.30
2023-01-09T19:33:52.537Z,7.30
2023-01-09T19:36:20.186Z,7.20
2023-01-09T19:38:47.717Z,7.30
2023-01-09T19:41:19.753Z,7.30
2023-01-09T19:43:47.828Z,7.30
2023-01-09T19:46:19.043Z,7.30
2023-01-09T19:48:47.225Z,7.30
2023-01-09T19:51:17.710Z,7.30
2023-01-09T19:53:45.159Z,7.30
2023-01-09T19:56:15.489Z,7.30
2023-01-09T19:58:55.017Z,7.40
2023-01-09T20:01:26.685Z,7.40
2023-01-09T20:03:56.587Z,7.40
2023-01-09T20:06:26.351Z,7.40
2023-01-09T20:08:57.103Z,7.40
2023-01-09T20:11:26.361Z,7.40
2023-01-09T20:13:55.342Z,7.40
2023-01-09T20:16:28.463Z,7.40
2023-01-09T20:19:03.603Z,7.40
2023-01-09T20:21:31.148Z,7.40
2023-01-09T20:24:00.770Z,7.40
2023-01-09T20:26:28.944Z,7.40
2023-01-09T20:28:57.558Z,7.40
2023-01-09T20:31:28.319Z,7.40
2023-01-09T20:33:55.628Z,7.30
2023-01-09T20:36:27.444Z,7.40
2023-01-09T20:38:55.597Z,7.40
2023-01-09T20:41:23.204Z,7.40
2023-01-09T20:44:03.298Z,7.40
2023-01-09T20:46:34.457Z,7.40
2023-01-09T20:49:06.435Z,7.40
2023-01-09T20:51:40.114Z,7.40
2023-01-09T20:54:07.271Z,7.40
2023-01-09T20:56:36.056Z,7.40
2023-01-09T20:59:03.022Z,7.40
2023-01-09T21:01:29.804Z,7.40
2023-01-09T21:03:57.884Z,7.40
2023-01-09T21:06:27.230Z,7.50
2023-01-09T21:08:54.080Z,7.50
2023-01-09T21:11:22.615Z,7.50
2023-01-09T21:13:50.786Z,7.50
2023-01-09T21:16:21.240Z,7.50
2023-01-09T21:18:49.036Z,7.50
2023-01-09T21:21:20.329Z,7.50
2023-01-09T21:23:51.861Z,7.60
2023-01-09T21:26:24.734Z,7.50
2023-01-09T21:28:55.254Z,7.50
2023-01-09T21:31:34.274Z,7.50
2023-01-09T21:34:07.808Z,7.50
2023-01-09T21:36:35.889Z,7.50
2023-01-09T21:39:06.059Z,7.50
2023-01-09T21:41:52.939Z,7.50
2023-01-09T21:44:38.379Z,7.50
2023-01-09T21:47:05.208Z,7.60
2023-01-09T21:49:34.829Z,7.50
2023-01-09T21:52:05.962Z,7.50
2023-01-09T21:54:34.054Z,7.50
2023-01-09T21:57:01.429Z,7.40
2023-01-09T21:59:29.150Z,7.50
2023-01-09T22:01:56.901Z,7.50
2023-01-09T22:04:28.150Z,7.50
2023-01-09T22:06:56.360Z,7.50
2023-01-09T22:09:23.453Z,7.50
2023-01-09T22:11:50.287Z,7.50
2023-01-09T22:14:19.415Z,7.50
2023-01-09T22:16:47.403Z,7.50
2023-01-09T22:19:18.265Z,7.50
2023-01-09T22:21:45.915Z,7.50
2023-01-09T22:24:19.132Z,7.50
2023-01-09T22:26:46.399Z,7.50
2023-01-09T22:29:16.094Z,7.50
2023-01-09T22:31:43.014Z,7.50
2023-01-09T22:34:15.238Z,7.50
2023-01-09T22:36:42.733Z,7.50
2023-01-09T22:39:14.035Z,7.60
2023-01-09T22:41:41.096Z,7.60
2023-01-09T22:44:11.555Z,7.60
2023-01-09T22:46:39.067Z,7.60
2023-01-09T22:49:05.883Z,7.60
2023-01-09T22:51:34.029Z,7.60
2023-01-09T22:54:01.178Z,7.50
2023-01-09T22:56:28.421Z,7.60
2023-01-09T22:58:59.003Z,7.60
2023-01-09T23:01:25.859Z,7.60
2023-01-09T23:03:52.905Z,7.60
2023-01-09T23:06:25.444Z,7.50
2023-01-09T23:08:53.102Z,7.40
2023-01-09T23:11:47.920Z,7.30
2023-01-09T23:14:16.229Z,7.30
2023-01-09T23:16:43.655Z,7.20
2023-01-09T23:19:14.303Z,7.20
2023-01-09T23:21:43.664Z,7.10
2023-01-09T23:24:11.590Z,7.10
2023-01-09T23:26:39.269Z,7.10
2023-01-09T23:29:07.816Z,7.10
2023-01-09T23:31:35.110Z,7.10
2023-01-09T23:34:04.453Z,7.10
2023-01-09T23:36:31.358Z,7.10
2023-01-09T23:38:59.524Z,7.10
2023-01-09T23:41:46.756Z,7.10
2023-01-09T23:44:13.474Z,7.10
2023-01-09T23:46:40.248Z,7.10
2023-01-09T23:49:07.057Z,7.10
2023-01-09T23:51:35.888Z,7.10
2023-01-09T23:54:02.704Z,7.10
2023-01-09T23:56:31.059Z,7.00
2023-01-09T23:58:58.392Z,7.00
